Time;durP1;ratioP1;P1;durP2;ratioP2;P2;SDS_P1;SDS_P2;PMS_P1;PMS_P2;Temp;Humidity;BMP_temperature;BMP_pressure;BME280_temperature;BME280_humidity;BME280_pressure;Samples;Min_cycle;Max_cycle;Signal;HPM_P1;HPM_P2
2020/12/23 00:00:12;;;;;;;10.55;1.90;;;;;;;7.52;87.41;100811.91;4974203;28;20047;-46
2020/12/23 00:02:41;;;;;;;11.25;2.03;;;;;;;7.80;87.00;100818.06;4973139;28;20104;-45
2020/12/23 00:05:09;;;;;;;11.30;2.03;;;;;;;7.73;85.67;100819.53;4973734;28;20421;-48
2020/12/23 00:07:36;;;;;;;16.48;1.60;;;;;;;7.55;86.36;100826.44;4973571;28;20093;-51
2020/12/23 00:10:04;;;;;;;9.25;1.98;;;;;;;7.53;86.80;100822.94;4972422;28;20464;-51
2020/12/23 00:12:32;;;;;;;11.68;2.10;;;;;;;7.62;85.97;100828.41;4974007;28;20140;-45
2020/12/23 00:15:00;;;;;;;14.73;1.90;;;;;;;7.50;85.92;100825.41;4971648;28;20106;-48
2020/12/23 00:17:26;;;;;;;15.13;2.33;;;;;;;7.66;85.84;100835.38;4974899;28;20101;-45
2020/12/23 00:19:54;;;;;;;8.85;1.92;;;;;;;7.50;86.76;100825.41;4970946;28;20050;-45
2020/12/23 00:22:21;;;;;;;15.15;2.00;;;;;;;7.51;85.43;100827.13;4975526;28;20047;-47
2020/12/23 00:24:48;;;;;;;13.65;1.83;;;;;;;7.57;85.32;100817.19;4971182;28;20050;-45
2020/12/23 00:27:15;;;;;;;9.50;2.17;;;;;;;7.53;86.32;100815.31;4975060;28;20050;-47
2020/12/23 00:29:41;;;;;;;9.85;2.13;;;;;;;7.61;85.32;100809.72;4972376;28;20057;-48
2020/12/23 00:32:07;;;;;;;13.18;2.85;;;;;;;7.43;87.19;100818.31;4973272;28;20055;-43
2020/12/23 00:34:34;;;;;;;10.82;1.92;;;;;;;7.60;84.91;100819.84;4973599;28;20077;-47
2020/12/23 00:37:01;;;;;;;13.00;2.17;;;;;;;7.38;86.65;100823.22;4971267;28;20110;-47
2020/12/23 00:39:28;;;;;;;16.30;3.25;;;;;;;7.40;87.25;100821.63;4974329;28;20050;-44
2020/12/23 00:41:54;;;;;;;12.88;2.10;;;;;;;7.60;84.48;100812.22;4970642;28;20047;-48
2020/12/23 00:44:21;;;;;;;13.00;2.00;;;;;;;7.58;85.13;100817.25;4975085;28;20050;-48
2020/12/23 00:46:47;;;;;;;14.13;2.50;;;;;;;7.91;83.78;100825.34;4970436;28;20101;-46
2020/12/23 00:49:13;;;;;;;16.25;2.28;;;;;;;7.97;82.62;100824.69;4974529;28;20054;-47
2020/12/23 00:51:40;;;;;;;14.80;2.33;;;;;;;7.63;83.82;100830.19;4972486;28;20054;-47
2020/12/23 00:54:06;;;;;;;9.13;2.72;;;;;;;7.34;86.51;100837.50;4972416;28;20067;-48
2020/12/23 00:56:32;;;;;;;14.73;2.20;;;;;;;7.24;88.24;100849.81;4973437;28;20062;-48
2020/12/23 00:58:59;;;;;;;11.20;2.08;;;;;;;7.20;87.56;100853.88;4970728;28;20552;-45
2020/12/23 01:01:25;;;;;;;12.00;2.17;;;;;;;7.32;87.81;100851.00;4974408;28;20054;-45
2020/12/23 01:03:52;;;;;;;11.27;2.17;;;;;;;7.26;87.78;100851.63;4969811;28;20122;-47
2020/12/23 01:06:18;;;;;;;13.88;3.08;;;;;;;7.17;88.56;100841.03;4974751;28;20050;-48
2020/12/23 01:08:44;;;;;;;14.70;2.90;;;;;;;7.14;88.34;100846.00;4968174;28;20460;-45
2020/12/23 01:11:12;;;;;;;11.90;2.00;;;;;;;7.15;87.86;100850.28;4974003;28;20085;-43
2020/12/23 01:13:39;;;;;;;11.73;2.08;;;;;;;7.16;87.10;100841.81;4972125;28;20524;-48
2020/12/23 01:16:07;;;;;;;10.00;2.42;;;;;;;7.10;88.36;100837.34;4972366;28;20057;-47
2020/12/23 01:18:33;;;;;;;9.52;2.47;;;;;;;7.10;88.41;100841.59;4972762;28;20464;-49
2020/12/23 01:21:00;;;;;;;14.35;2.85;;;;;;;7.23;87.96;100840.44;4970765;28;20098;-46
2020/12/23 01:23:26;;;;;;;16.90;2.58;;;;;;;7.17;88.29;100838.50;4973745;28;20058;-44
2020/12/23 01:25:54;;;;;;;10.00;1.98;;;;;;;7.24;87.95;100842.16;4969779;28;20043;-46
2020/12/23 01:28:21;;;;;;;17.90;2.55;;;;;;;7.21;87.14;100832.72;4974533;28;20472;-49
2020/12/23 01:30:48;;;;;;;18.50;2.70;;;;;;;7.14;87.93;100833.28;4969881;28;20043;-47
2020/12/23 01:33:14;;;;;;;11.75;2.30;;;;;;;7.17;88.14;100830.00;4974192;28;20050;-46
2020/12/23 01:35:43;;;;;;;12.30;2.35;;;;;;;7.09;87.80;100837.31;4971152;28;20074;-48
2020/12/23 01:38:10;;;;;;;13.80;2.40;;;;;;;7.11;87.75;100831.44;4972637;28;20506;-45
2020/12/23 01:40:37;;;;;;;14.65;2.53;;;;;;;7.09;87.14;100827.13;4971858;28;20124;-48
2020/12/23 01:43:07;;;;;;;18.10;2.45;;;;;;;7.01;86.98;100825.91;4970661;28;20051;-49
2020/12/23 01:45:34;;;;;;;9.15;2.00;;;;;;;6.94;87.75;100819.72;4972212;28;20077;-47
2020/12/23 01:48:16;;;;;;;18.05;2.22;;;;;;;6.92;88.51;100815.34;4970192;28;20047;-49
2020/12/23 01:50:44;;;;;;;12.45;2.10;;;;;;;6.90;87.77;100820.38;4967086;28;20101;-46
2020/12/23 01:53:11;;;;;;;15.07;2.45;;;;;;;6.87;88.17;100812.59;4972592;28;20421;-51
2020/12/23 01:55:37;;;;;;;11.82;2.40;;;;;;;6.81;88.67;100810.69;4971504;28;20046;-47
2020/12/23 01:58:04;;;;;;;8.65;1.75;;;;;;;6.98;88.36;100815.59;4970499;28;20055;-48
2020/12/23 02:00:31;;;;;;;7.13;2.25;;;;;;;7.31;86.94;100819.56;4972419;28;20073;-43
2020/12/23 02:03:00;;;;;;;11.68;1.92;;;;;;;7.34;86.52;100826.44;4969461;28;20540;-48
2020/12/23 02:05:27;;;;;;;13.05;3.20;;;;;;;7.25;86.93;100823.50;4972765;28;20046;-46
2020/12/23 02:07:53;;;;;;;9.07;1.95;;;;;;;7.70;85.18;100828.72;4968487;28;20047;-45
2020/12/23 02:10:20;;;;;;;13.57;2.83;;;;;;;8.20;83.15;100832.34;4973671;28;20056;-47
2020/12/23 02:12:46;;;;;;;7.35;2.17;;;;;;;7.44;86.71;100835.31;4968907;28;20175;-46
2020/12/23 02:15:14;;;;;;;10.75;2.55;;;;;;;7.65;86.41;100831.09;4973048;28;20046;-45
2020/12/23 02:17:41;;;;;;;12.73;2.38;;;;;;;7.21;87.43;100827.63;4970042;28;20502;-47
2020/12/23 02:20:10;;;;;;;16.38;2.58;;;;;;;6.94;88.43;100823.94;4971527;28;20051;-48
2020/12/23 02:22:37;;;;;;;12.18;2.35;;;;;;;6.92;88.55;100823.84;4971194;28;20050;-44
2020/12/23 02:25:05;;;;;;;13.52;2.22;;;;;;;6.87;89.66;100818.56;4969632;28;20055;-45
2020/12/23 02:27:31;;;;;;;13.25;2.08;;;;;;;6.84;89.31;100827.75;4970849;28;20058;-48
2020/12/23 02:29:58;;;;;;;11.85;3.22;;;;;;;7.13;87.85;100826.44;4968387;28;20047;-45
2020/12/23 02:32:26;;;;;;;12.68;2.45;;;;;;;6.99;88.34;100825.00;4972204;28;20050;-46
2020/12/23 02:34:53;;;;;;;12.95;2.28;;;;;;;6.81;89.89;100825.94;4968264;28;20058;-47
2020/12/23 02:37:21;;;;;;;10.50;2.00;;;;;;;6.81;90.41;100828.50;4972983;28;20057;-46
2020/12/23 02:39:52;;;;;;;12.18;2.03;;;;;;;6.80;90.51;100829.31;4968037;28;20552;-46
2020/12/23 02:42:21;;;;;;;9.38;2.25;;;;;;;6.87;89.85;100832.97;4969181;28;20046;-46
2020/12/23 02:44:47;;;;;;;8.82;2.30;;;;;;;7.00;88.33;100821.63;4971679;28;20137;-47
2020/12/23 02:47:16;;;;;;;15.07;2.72;;;;;;;6.79;89.34;100821.59;4971962;28;20054;-46
2020/12/23 02:49:44;;;;;;;13.07;1.90;;;;;;;6.80;90.42;100818.25;4969664;28;20050;-47
2020/12/23 02:52:11;;;;;;;11.27;2.60;;;;;;;6.87;90.13;100817.69;4971640;28;20564;-48
2020/12/23 02:54:39;;;;;;;9.50;2.30;;;;;;;6.87;89.75;100815.16;4969942;28;20085;-47
2020/12/23 02:57:06;;;;;;;13.38;2.15;;;;;;;6.81;90.55;100818.31;4969397;28;20458;-49
2020/12/23 02:59:33;;;;;;;10.73;3.03;;;;;;;6.79;90.62;100819.03;4970690;28;20054;-49
2020/12/23 03:01:59;;;;;;;10.68;2.30;;;;;;;6.79;90.30;100821.59;4968330;28;20051;-44
2020/12/23 03:04:26;;;;;;;15.07;2.22;;;;;;;6.64;90.04;100816.72;4971373;28;20046;-47
2020/12/23 03:06:53;;;;;;;11.05;1.80;;;;;;;6.72;90.88;100819.59;4967088;28;20414;-45
2020/12/23 03:09:19;;;;;;;9.32;1.95;;;;;;;6.73;91.32;100812.03;4972166;28;20053;-45
2020/12/23 03:11:46;;;;;;;11.60;2.03;;;;;;;6.59;91.14;100806.34;4967372;28;20070;-49
2020/12/23 03:14:13;;;;;;;8.82;1.63;;;;;;;6.59;91.31;100802.91;4971424;28;20464;-47
2020/12/23 03:16:39;;;;;;;8.98;3.38;;;;;;;6.76;90.42;100798.56;4969074;28;20062;-45
2020/12/23 03:19:06;;;;;;;11.40;2.20;;;;;;;6.64;91.11;100793.81;4971227;28;20051;-52
2020/12/23 03:21:32;;;;;;;15.30;2.85;;;;;;;7.00;90.74;100791.97;4973969;28;20444;-46
2020/12/23 03:23:59;;;;;;;7.43;2.50;;;;;;;6.91;90.16;100796.66;4945317;28;792276;-47
2020/12/23 03:26:25;;;;;;;7.03;2.42;;;;;;;6.71;91.27;100800.91;4976145;28;20046;-52
2020/12/23 03:28:52;;;;;;;12.07;2.10;;;;;;;6.78;90.83;100799.50;4971690;28;20129;-48
2020/12/23 03:31:19;;;;;;;11.02;2.40;;;;;;;7.02;90.31;100807.28;4976956;28;20104;-47
2020/12/23 03:33:46;;;;;;;12.02;2.25;;;;;;;7.05;89.62;100804.88;4971841;28;20125;-50
2020/12/23 03:36:13;;;;;;;12.73;2.38;;;;;;;7.07;89.56;100813.44;4976445;28;20081;-44
2020/12/23 03:38:40;;;;;;;12.55;2.58;;;;;;;7.01;89.27;100826.78;4973443;28;20061;-45
2020/12/23 03:41:07;;;;;;;13.35;2.22;;;;;;;6.96;89.89;100819.75;4973980;28;20055;-53
2020/12/23 03:43:34;;;;;;;11.00;2.38;;;;;;;6.68;91.41;100810.09;4974586;28;20164;-46
2020/12/23 03:46:00;;;;;;;17.05;2.58;;;;;;;6.66;91.76;100816.81;4972456;28;20129;-48
2020/12/23 03:48:26;;;;;;;11.07;2.38;;;;;;;6.64;91.60;100819.25;4975199;28;20511;-45
2020/12/23 03:50:53;;;;;;;12.48;2.42;;;;;;;6.55;92.23;100819.72;4971510;28;20082;-47
2020/12/23 03:53:20;;;;;;;14.77;2.75;;;;;;;6.45;93.04;100817.59;4976250;28;20489;-46
2020/12/23 03:55:46;;;;;;;14.20;2.97;;;;;;;6.43;93.99;100810.69;4971372;28;20117;-45
2020/12/23 03:58:13;;;;;;;18.52;3.40;;;;;;;6.47;93.87;100813.44;4975540;28;20495;-50
2020/12/23 04:00:39;;;;;;;9.73;2.25;;;;;;;6.54;93.12;100814.56;4973244;28;20043;-46
2020/12/23 04:03:05;;;;;;;11.35;2.83;;;;;;;6.77;92.56;100810.47;4975195;28;20058;-49
2020/12/23 04:05:38;;;;;;;9.77;3.88;;;;;;;6.84;92.40;100812.47;4973745;28;20050;-47
2020/12/23 04:08:05;;;;;;;11.10;2.17;;;;;;;6.84;92.73;100817.56;4972704;28;20043;-48
2020/12/23 04:10:32;;;;;;;10.27;2.30;;;;;;;6.83;92.32;100819.22;4974476;28;20053;-46
2020/12/23 04:12:59;;;;;;;9.30;2.80;;;;;;;6.81;92.33;100820.84;4971983;28;20057;-46
2020/12/23 04:15:25;;;;;;;16.33;3.17;;;;;;;6.67;91.66;100823.63;4975542;28;20046;-48
2020/12/23 04:17:52;;;;;;;17.35;2.78;;;;;;;7.48;87.87;100824.44;4970713;28;20050;-46
2020/12/23 04:20:19;;;;;;;11.18;2.40;;;;;;;7.11;88.63;100833.13;4976274;28;20436;-51
2020/12/23 04:22:46;;;;;;;18.40;3.17;;;;;;;6.75;90.84;100832.44;4970795;28;20125;-52
2020/12/23 04:25:13;;;;;;;13.40;1.92;;;;;;;6.70;90.04;100823.72;4974962;28;20927;-45
2020/12/23 04:27:39;;;;;;;20.23;3.40;;;;;;;7.37;86.46;100824.91;4972492;28;20116;-48
2020/12/23 04:30:07;;;;;;;16.85;3.28;;;;;;;7.03;88.28;100839.59;4972538;28;20333;-48
2020/12/23 04:32:35;;;;;;;9.68;2.05;;;;;;;6.69;90.86;100842.34;4973902;28;20093;-50
2020/12/23 04:35:03;;;;;;;15.30;2.47;;;;;;;6.63;92.06;100837.88;4971944;28;20098;-51
2020/12/23 04:37:34;;;;;;;9.05;2.15;;;;;;;7.21;88.01;100847.13;4974037;28;20042;-45
2020/12/23 04:40:03;;;;;;;11.50;2.58;;;;;;;7.42;87.81;100842.03;4971652;28;20043;-50
2020/12/23 04:42:31;;;;;;;12.18;2.38;;;;;;;6.91;89.70;100837.38;4974420;28;20486;-45
2020/12/23 04:44:57;;;;;;;12.15;2.40;;;;;;;7.00;89.31;100840.31;4971302;28;20145;-45
2020/12/23 04:47:25;;;;;;;14.85;2.50;;;;;;;7.17;85.84;100837.63;4974724;28;20108;-48
2020/12/23 04:49:56;;;;;;;11.10;2.17;;;;;;;6.97;87.35;100837.63;4970365;28;20047;-46
2020/12/23 04:52:30;;;;;;;14.23;2.50;;;;;;;7.27;88.62;100838.06;4974962;28;20046;-48
2020/12/23 04:55:03;;;;;;;13.02;2.35;;;;;;;7.89;83.08;100837.16;4970666;28;20054;-47
2020/12/23 04:57:31;;;;;;;15.15;2.55;;;;;;;7.80;84.16;100833.38;4973359;28;20566;-44
2020/12/23 04:59:58;;;;;;;12.07;2.25;;;;;;;7.32;86.99;100828.06;4970332;28;20051;-43
2020/12/23 05:02:29;;;;;;;8.20;2.10;;;;;;;7.01;88.95;100833.56;4975414;28;20104;-47
2020/12/23 05:05:09;;;;;;;12.70;3.13;;;;;;;6.99;89.01;100825.88;4973374;28;20066;-46
2020/12/23 05:07:36;;;;;;;9.77;2.15;;;;;;;6.91;89.55;100827.22;4973162;28;20085;-45
2020/12/23 05:10:06;;;;;;;12.55;2.00;;;;;;;6.87;90.16;100833.84;4971856;28;20073;-46
2020/12/23 05:12:32;;;;;;;12.43;2.20;;;;;;;6.58;92.00;100824.09;4973280;28;20386;-47
2020/12/23 05:15:06;;;;;;;9.98;2.22;;;;;;;6.62;92.54;100820.88;4971208;28;20270;-46
2020/12/23 05:17:33;;;;;;;11.68;2.25;;;;;;;6.64;93.16;100824.34;4973381;28;20057;-48
2020/12/23 05:20:01;;;;;;;13.25;2.67;;;;;;;6.53;92.89;100817.94;4970849;28;20098;-42
2020/12/23 05:22:28;;;;;;;14.27;2.40;;;;;;;6.52;92.44;100822.16;4973879;28;20931;-46
2020/12/23 05:24:56;;;;;;;12.82;2.22;;;;;;;6.41;93.33;100830.09;4970488;28;20047;-44
2020/12/23 05:27:23;;;;;;;9.63;2.00;;;;;;;6.46;93.12;100836.25;4974312;28;20794;-42
2020/12/23 05:29:50;;;;;;;17.75;3.05;;;;;;;6.36;93.69;100825.66;4970423;28;20109;-44
2020/12/23 05:32:24;;;;;;;12.10;2.30;;;;;;;6.29;93.81;100825.34;4965762;28;20046;-42
2020/12/23 05:34:51;;;;;;;13.27;2.20;;;;;;;6.34;93.22;100822.19;4970040;28;20055;-42
2020/12/23 05:37:19;;;;;;;11.88;2.63;;;;;;;6.46;91.74;100826.94;4974572;28;20105;-46
2020/12/23 05:39:46;;;;;;;14.98;2.53;;;;;;;6.78;89.44;100824.94;4969092;28;20055;-43
2020/12/23 05:42:14;;;;;;;12.15;3.10;;;;;;;6.95;88.52;100829.09;4973178;28;20142;-44
2020/12/23 05:44:41;;;;;;;13.38;2.22;;;;;;;6.64;89.93;100827.75;4971392;28;20055;-47
2020/12/23 05:47:07;;;;;;;10.25;2.35;;;;;;;7.14;89.13;100820.53;4971616;28;20129;-49
2020/12/23 05:49:38;;;;;;;13.63;2.50;;;;;;;7.03;86.41;100817.56;4972338;28;20143;-44
2020/12/23 05:52:05;;;;;;;11.52;1.95;;;;;;;7.22;86.49;100826.81;4970784;28;20476;-46
2020/12/23 05:54:34;;;;;;;11.05;2.00;;;;;;;6.78;89.09;100835.13;4972165;28;20263;-46
2020/12/23 05:57:02;;;;;;;15.02;2.40;;;;;;;7.44;85.80;100838.78;4969994;28;20048;-42
2020/12/23 05:59:29;;;;;;;11.65;2.70;;;;;;;6.84;88.03;100833.72;4973450;28;20050;-45
2020/12/23 06:02:03;;;;;;;9.15;2.03;;;;;;;6.58;90.17;100831.72;4970069;28;20453;-48
2020/12/23 06:04:34;;;;;;;9.95;1.70;;;;;;;6.75;91.03;100833.34;4971281;28;20050;-44
2020/12/23 06:07:05;;;;;;;11.05;2.30;;;;;;;6.62;90.20;100828.50;4969837;28;20480;-44
2020/12/23 06:09:39;;;;;;;17.90;2.10;;;;;;;6.55;90.12;100836.66;4971836;28;20050;-44
2020/12/23 06:12:31;;;;;;;9.68;2.17;;;;;;;6.54;90.38;100840.88;4971509;28;20050;-44
2020/12/23 06:15:00;;;;;;;14.43;2.35;;;;;;;6.40;91.32;100829.22;4970918;28;20585;-43
2020/12/23 06:17:27;;;;;;;13.77;2.97;;;;;;;6.33;92.42;100833.19;4972796;28;20061;-49
2020/12/23 06:19:56;;;;;;;12.32;2.55;;;;;;;6.38;91.11;100833.38;4968771;28;20113;-47
2020/12/23 06:22:25;;;;;;;8.60;2.15;;;;;;;6.42;91.37;100826.75;4973188;28;20101;-48
2020/12/23 06:24:52;;;;;;;14.35;3.15;;;;;;;6.59;90.88;100828.38;4966665;28;20417;-41
2020/12/23 06:27:20;;;;;;;9.88;1.95;;;;;;;6.94;88.20;100827.34;4961497;28;20137;-42
2020/12/23 06:29:48;;;;;;;14.35;2.70;;;;;;;6.74;88.85;100829.03;4967505;28;20050;-42
2020/12/23 06:32:23;;;;;;;10.65;2.88;;;;;;;6.97;88.50;100837.63;4966518;28;20096;-44
2020/12/23 06:35:00;;;;;;;12.83;2.20;;;;;;;6.94;87.58;100840.09;4967973;28;20486;-42
2020/12/23 06:37:34;;;;;;;9.85;2.25;;;;;;;6.62;88.98;100838.69;4967376;28;20050;-46
2020/12/23 06:40:11;;;;;;;13.70;2.53;;;;;;;7.39;86.05;100840.22;4969502;28;20051;-43
2020/12/23 06:42:47;;;;;;;8.70;2.13;;;;;;;6.83;88.15;100837.06;4971869;28;20331;-43
2020/12/23 06:45:14;;;;;;;15.40;2.53;;;;;;;6.62;89.66;100838.69;4973475;28;20104;-44
2020/12/23 06:47:41;;;;;;;8.65;2.13;;;;;;;6.41;91.18;100838.59;4968937;28;20384;-42
2020/12/23 06:50:23;;;;;;;9.30;3.13;;;;;;;6.30;92.92;100847.44;4971308;28;20050;-45
2020/12/23 06:52:50;;;;;;;9.77;2.17;;;;;;;7.17;89.01;100845.28;4963332;28;20792;-43
2020/12/23 06:55:19;;;;;;;17.23;2.00;;;;;;;6.94;87.12;100855.34;4966789;28;20305;-45
2020/12/23 06:57:46;;;;;;;11.85;3.25;;;;;;;7.68;82.81;100843.97;4968663;28;20047;-42
2020/12/23 07:00:13;;;;;;;9.27;2.20;;;;;;;7.09;84.19;100840.72;4972549;28;20460;-44
2020/12/23 07:03:00;;;;;;;19.38;2.92;;;;;;;6.75;88.32;100848.59;4969926;28;20055;-43
2020/12/23 07:05:27;;;;;;;9.55;1.92;;;;;;;6.66;90.39;100843.13;4968883;28;20120;-45
2020/12/23 07:07:55;;;;;;;13.88;2.35;;;;;;;6.51;91.78;100843.28;4970315;28;20477;-42
2020/12/23 07:10:29;;;;;;;9.35;2.15;;;;;;;6.47;92.47;100849.06;4972028;28;20054;-42
2020/12/23 07:13:00;;;;;;;11.25;2.30;;;;;;;7.15;88.79;100846.06;4970313;28;20125;-48
2020/12/23 07:15:28;;;;;;;11.50;1.90;;;;;;;7.39;85.29;100846.22;4972478;28;20046;-45
2020/12/23 07:18:08;;;;;;;11.18;2.22;;;;;;;6.89;87.38;100842.44;4970995;28;20046;-43
2020/12/23 07:20:45;;;;;;;11.43;2.35;;;;;;;6.86;88.61;100846.50;4969023;28;20178;-45
2020/12/23 07:23:14;;;;;;;15.15;2.70;;;;;;;6.79;88.70;100844.50;4972652;28;20487;-44
2020/12/23 07:25:49;;;;;;;12.60;2.35;;;;;;;6.60;89.82;100845.38;4965883;28;20086;-45
2020/12/23 07:28:26;;;;;;;10.75;2.17;;;;;;;6.48;90.42;100853.34;4972201;28;20070;-49
2020/12/23 07:30:52;;;;;;;8.23;2.20;;;;;;;6.47;90.95;100851.59;4968409;28;20086;-45
2020/12/23 07:33:24;;;;;;;13.40;2.50;;;;;;;6.49;90.44;100844.91;4972335;28;20090;-46
2020/12/23 07:35:56;;;;;;;9.80;2.00;;;;;;;6.35;91.20;100841.75;4969646;28;20063;-43
2020/12/23 07:38:24;;;;;;;10.82;1.88;;;;;;;6.42;90.31;100855.59;4967919;28;20058;-42
2020/12/23 07:40:52;;;;;;;10.48;1.85;;;;;;;6.55;91.01;100857.00;4969382;28;20059;-43
2020/12/23 07:43:19;;;;;;;12.35;2.28;;;;;;;6.51;91.53;100848.38;4968796;28;20046;-45
2020/12/23 07:45:48;;;;;;;6.85;1.60;;;;;;;6.60;92.06;100858.09;4969505;28;20051;-43
2020/12/23 07:48:18;;;;;;;12.73;1.95;;;;;;;6.69;90.96;100847.44;4973032;28;20042;-44
2020/12/23 07:50:47;;;;;;;10.45;1.73;;;;;;;6.73;91.08;100854.41;4969378;28;20042;-43
2020/12/23 07:53:16;;;;;;;14.48;2.85;;;;;;;6.44;90.13;100865.84;4972416;28;20105;-47
2020/12/23 07:55:47;;;;;;;12.18;2.47;;;;;;;6.46;90.29;100866.78;4960251;28;20129;-45
2020/12/23 07:58:15;;;;;;;13.55;2.47;;;;;;;6.37;90.71;100873.19;4969125;28;20489;-45
2020/12/23 08:00:45;;;;;;;13.07;2.60;;;;;;;6.30;91.99;100861.00;4968897;28;20054;-43
2020/12/23 08:03:12;;;;;;;8.90;2.33;;;;;;;6.31;91.32;100867.81;4971636;28;20129;-42
2020/12/23 08:05:43;;;;;;;14.27;2.13;;;;;;;6.39;91.32;100870.72;4972319;28;20562;-42
2020/12/23 08:08:26;;;;;;;12.90;2.08;;;;;;;6.53;89.39;100858.63;4975845;28;20050;-42
2020/12/23 08:10:53;;;;;;;12.15;1.67;;;;;;;6.53;91.06;100858.63;4970374;28;20070;-44
2020/12/23 08:13:27;;;;;;;8.00;1.90;;;;;;;6.49;91.73;100860.16;4976532;28;20501;-43
2020/12/23 08:16:06;;;;;;;9.57;2.70;;;;;;;6.55;91.01;100857.88;4963927;28;20068;-45
2020/12/23 08:18:33;;;;;;;12.35;2.28;;;;;;;6.54;90.13;100851.06;4972500;28;20082;-43
2020/12/23 08:21:11;;;;;;;11.93;2.25;;;;;;;7.13;88.29;100851.91;4971855;28;20062;-44
2020/12/23 08:23:39;;;;;;;6.40;1.90;;;;;;;6.81;88.41;100845.44;4973442;28;20497;-43
2020/12/23 08:26:09;;;;;;;8.73;2.35;;;;;;;7.14;87.53;100851.09;4967568;28;20146;-42
2020/12/23 08:28:43;;;;;;;8.82;1.40;;;;;;;7.05;87.83;100856.66;4966035;28;20528;-42
2020/12/23 08:31:14;;;;;;;9.15;1.73;;;;;;;7.33;87.01;100868.00;4971848;28;20058;-43
2020/12/23 08:33:41;;;;;;;14.13;2.60;;;;;;;6.91;87.96;100855.22;4972968;28;20055;-44
2020/12/23 08:36:08;;;;;;;11.15;2.25;;;;;;;6.71;89.13;100856.03;4973649;28;20102;-43
2020/12/23 08:38:42;;;;;;;10.02;2.22;;;;;;;6.97;88.22;100860.56;4972652;28;20137;-43
2020/12/23 08:41:15;;;;;;;18.58;1.90;;;;;;;7.05;87.42;100866.84;4974121;28;20079;-43
2020/12/23 08:43:49;;;;;;;12.40;1.92;;;;;;;7.06;87.51;100868.59;4971639;28;20054;-43
2020/12/23 08:46:22;;;;;;;10.90;2.28;;;;;;;7.27;86.80;100872.84;4975868;28;20042;-46
2020/12/23 08:48:50;;;;;;;14.13;3.05;;;;;;;7.26;86.40;100873.69;4970743;28;20460;-43
2020/12/23 08:51:19;;;;;;;9.00;2.22;;;;;;;7.22;86.17;100872.66;4966350;28;20097;-46
2020/12/23 08:53:47;;;;;;;9.77;2.58;;;;;;;7.25;86.75;100871.91;4967569;28;20078;-42
2020/12/23 08:56:24;;;;;;;12.50;1.95;;;;;;;7.35;86.36;100876.59;4976551;28;20042;-41
2020/12/23 08:58:58;;;;;;;12.55;2.92;;;;;;;7.43;85.87;100862.47;4968915;28;20050;-42
2020/12/23 09:01:26;;;;;;;15.32;2.85;;;;;;;7.23;87.07;100846.38;4970919;28;20046;-42
2020/12/23 09:04:09;;;;;;;14.77;2.53;;;;;;;7.33;86.22;100840.00;4966944;28;20094;-42
2020/12/23 09:06:44;;;;;;;12.07;2.75;;;;;;;7.13;86.47;100842.59;4970968;28;20058;-43
2020/12/23 09:09:17;;;;;;;11.68;3.25;;;;;;;7.12;86.39;100840.00;4974087;28;20057;-44
2020/12/23 09:11:47;;;;;;;12.70;2.60;;;;;;;7.12;87.04;100845.09;4967199;28;20953;-42
2020/12/23 09:14:31;;;;;;;13.88;2.58;;;;;;;7.71;83.73;100844.06;4974732;28;20168;-42
2020/12/23 09:17:03;;;;;;;13.57;2.83;;;;;;;7.59;84.07;100846.16;4970635;28;20501;-43
2020/12/23 09:19:52;;;;;;;12.02;2.47;;;;;;;7.59;84.24;100848.69;4972585;28;20050;-42
2020/12/23 09:22:35;;;;;;;13.43;3.60;;;;;;;8.15;81.42;100852.59;4971627;28;20038;-43
2020/12/23 09:25:18;;;;;;;8.07;2.53;;;;;;;7.30;85.34;100842.41;4973283;28;20042;-42
2020/12/23 09:27:49;;;;;;;9.02;3.22;;;;;;;7.58;85.41;100852.94;4971802;28;20841;-44
2020/12/23 09:30:37;;;;;;;10.38;2.22;;;;;;;7.84;83.28;100851.41;4974289;28;20157;-42
2020/12/23 09:33:33;;;;;;;13.48;2.35;;;;;;;7.21;85.53;100850.56;4967736;28;20473;-47
2020/12/23 09:36:05;;;;;;;18.52;3.55;;;;;;;7.50;85.56;100844.09;4968950;28;20556;-43
2020/12/23 09:38:35;;;;;;;13.55;2.88;;;;;;;7.46;86.03;100838.81;4967483;28;20509;-43
2020/12/23 09:41:04;;;;;;;16.05;3.92;;;;;;;7.48;85.60;100839.75;4973090;28;20055;-42
2020/12/23 09:43:34;;;;;;;11.85;2.28;;;;;;;7.38;85.17;100831.72;4972084;28;20054;-43
2020/12/23 09:46:05;;;;;;;10.60;3.05;;;;;;;7.55;85.00;100827.31;4972822;28;20043;-42
2020/12/23 09:48:32;;;;;;;11.88;1.95;;;;;;;7.66;84.16;100820.94;4973212;28;20137;-44
2020/12/23 09:50:58;;;;;;;7.45;2.03;;;;;;;7.48;85.54;100811.72;4972805;28;20473;-44
2020/12/23 09:53:26;;;;;;;10.68;2.03;;;;;;;7.50;84.99;100816.06;4971642;28;20050;-42
2020/12/23 09:55:54;;;;;;;14.32;2.03;;;;;;;7.26;85.77;100810.00;4971472;28;20047;-43
2020/12/23 09:58:25;;;;;;;8.13;2.38;;;;;;;7.12;87.08;100807.75;4970520;28;20512;-42
2020/12/23 10:00:52;;;;;;;14.85;2.40;;;;;;;7.37;87.13;100807.06;4968762;28;20050;-44
2020/12/23 10:03:18;;;;;;;8.98;1.98;;;;;;;8.02;82.73;100797.69;4973464;28;20129;-43
2020/12/23 10:05:46;;;;;;;12.65;2.38;;;;;;;7.34;86.48;100791.66;4971653;28;20058;-43
2020/12/23 10:08:12;;;;;;;7.82;1.88;;;;;;;7.35;86.43;100788.31;4973496;28;20054;-43
2020/12/23 10:10:39;;;;;;;9.32;2.38;;;;;;;7.89;83.42;100792.94;4969592;28;20835;-44
2020/12/23 10:13:08;;;;;;;10.65;2.20;;;;;;;7.44;85.64;100799.66;4972929;28;20050;-42
2020/12/23 10:15:35;;;;;;;10.15;2.30;;;;;;;7.85;83.28;100791.94;4970862;28;20043;-45
2020/12/23 10:18:04;;;;;;;9.68;2.72;;;;;;;7.81;83.52;100786.66;4972279;28;20421;-41
2020/12/23 10:20:33;;;;;;;13.80;2.30;;;;;;;8.19;81.51;100780.47;4968952;28;20124;-42
2020/12/23 10:23:04;;;;;;;10.73;1.85;;;;;;;8.15;81.82;100784.59;4966452;28;20046;-43
2020/12/23 10:25:34;;;;;;;10.45;2.15;;;;;;;8.06;82.21;100784.25;4969523;28;20043;-41
2020/12/23 10:28:01;;;;;;;8.65;2.67;;;;;;;7.72;84.33;100782.13;4966246;28;20047;-44
2020/12/23 10:30:27;;;;;;;8.98;2.25;;;;;;;8.04;82.86;100782.44;4962674;28;20514;-42
2020/12/23 10:33:08;;;;;;;10.75;2.42;;;;;;;7.91;83.09;100770.94;4971629;28;20133;-43
2020/12/23 10:35:35;;;;;;;10.25;2.10;;;;;;;7.65;83.22;100760.59;4968850;28;20054;-45
2020/12/23 10:38:01;;;;;;;13.75;3.10;;;;;;;7.86;84.10;100760.56;4971743;28;20240;-44
2020/12/23 10:40:28;;;;;;;10.55;2.53;;;;;;;7.98;84.03;100760.13;4971397;28;20042;-44
2020/12/23 10:42:54;;;;;;;9.95;2.33;;;;;;;8.40;80.78;100763.41;4970555;28;20047;-46
2020/12/23 10:45:20;;;;;;;10.45;2.25;;;;;;;8.49;80.43;100769.66;4972225;28;20050;-43
2020/12/23 10:47:47;;;;;;;11.38;2.42;;;;;;;8.19;82.11;100772.81;4970535;28;20054;-44
2020/12/23 10:50:13;;;;;;;7.43;1.98;;;;;;;8.46;81.00;100769.53;4972593;28;20117;-41
2020/12/23 10:52:40;;;;;;;12.48;3.40;;;;;;;8.40;81.55;100760.00;4971494;28;20182;-46
2020/12/23 10:55:06;;;;;;;14.88;2.40;;;;;;;8.13;81.99;100750.53;4970820;28;20055;-48
2020/12/23 10:57:33;;;;;;;13.23;2.97;;;;;;;7.91;83.51;100748.00;4970212;28;20043;-42
2020/12/23 11:00:00;;;;;;;6.53;2.42;;;;;;;8.12;83.07;100736.00;4968778;28;20051;-40
2020/12/23 11:02:26;;;;;;;9.88;2.10;;;;;;;7.63;85.50;100733.34;4965167;28;20054;-43
2020/12/23 11:04:53;;;;;;;15.55;2.92;;;;;;;7.38;86.87;100737.47;4967763;28;20054;-43
2020/12/23 11:07:19;;;;;;;9.98;2.22;;;;;;;7.95;85.61;100731.09;4968441;28;20104;-41
2020/12/23 11:09:45;;;;;;;9.13;2.05;;;;;;;8.48;82.32;100737.31;4968043;28;20054;-45
2020/12/23 11:12:12;;;;;;;9.13;2.58;;;;;;;7.88;85.39;100712.16;4970250;28;20049;-41
2020/12/23 11:14:38;;;;;;;10.85;2.75;;;;;;;7.73;86.56;100716.72;4970602;28;20049;-46
2020/12/23 11:17:05;;;;;;;12.48;3.00;;;;;;;7.49;87.53;100714.06;4970082;28;20051;-45
2020/12/23 11:19:32;;;;;;;16.98;2.90;;;;;;;7.59;87.30;100714.50;4971747;28;20476;-45
2020/12/23 11:21:58;;;;;;;11.68;2.78;;;;;;;7.84;87.52;100717.97;4969048;28;20047;-41
2020/12/23 11:24:24;;;;;;;17.60;3.17;;;;;;;8.06;85.70;100709.44;4972678;28;20054;-43
2020/12/23 11:26:51;;;;;;;17.13;2.92;;;;;;;7.50;87.33;100698.00;4968043;28;20054;-41
2020/12/23 11:29:17;;;;;;;14.10;4.05;;;;;;;8.11;85.24;100692.59;4973560;28;20204;-49
2020/12/23 11:31:44;;;;;;;14.80;3.45;;;;;;;7.97;85.93;100681.03;4960135;28;20043;-43
2020/12/23 11:34:20;;;;;;;11.23;3.40;;;;;;;8.16;84.83;100679.19;4971422;28;20062;-44